Cfl Racer — PJMV — position and weather

sailwx.info

Track history (hours):
 
Tides and Currents Weather Stations Pressure Air Temp Water Temp Dewpoint Dewpoint Depression Visibility Wind Speed Wind Dir Waves Ship Positions

Cfl Racer

Last reported at 2015-Feb-27 16:25 UTC. Time now 2015-Mar-02 23:14 UTC.
Position N 54°56' W 001°14'.

Length 83 m; draft 3 m.

Type: Cargo ship. MMSI: 306762000.

Date/timePositionNaut miles runAvg speedWind from/ knotsBaromVisibWave heightAir tempDewpointWater temp
2015-Feb-27 16:25N 54°56' W 001°14'1011.1
2015-Feb-27 15:33N 54°47' W 001°10'10 9.9
2015-Feb-27 14:32N 54°37' W 001°09'0 0.4
2015-Feb-27 13:27N 54°36' W 001°09'0 0.0
2015-Feb-27 12:24N 54°36' W 001°09'0 0.0
2015-Feb-27 11:27N 54°36' W 001°09'0 0.0
2015-Feb-27 10:30N 54°36' W 001°09'0 0.0
2015-Feb-27 09:30N 54°36' W 001°09'0 0.0
2015-Feb-27 08:30N 54°36' W 001°09'0 0.0
2015-Feb-27 07:30N 54°36' W 001°09'5 0.7
2015-Feb-27 00:33N 54°40' W 001°06'8 7.5
2015-Feb-26 23:33N 54°37' W 000°54'1010.4
2015-Feb-26 22:33N 54°32' W 000°38'1110.7
2015-Feb-26 21:34N 54°24' W 000°26'7 7.4
2015-Feb-26 20:34N 54°18' W 000°18'9 9.4
2015-Feb-26 19:33N 54°11' W 000°07'1111.0
2015-Feb-26 18:33N 54°02' E 000°04'1211.6
2015-Feb-26 17:33N 53°52' E 000°13'1212.0
2015-Feb-26 16:33N 53°42' E 000°25'  
2015-Feb-24 03:33N 52°59' E 001°16'1312.9
2015-Feb-24 02:33N 52°52' E 001°33'1212.1
2015-Feb-24 01:33N 52°43' E 001°47'10 9.8
2015-Feb-24 00:33N 52°34' E 001°52'9 9.2
2015-Feb-23 23:33N 52°25' E 001°51'10 9.6
2015-Feb-23 22:33N 52°15' E 001°51'1110.6
2015-Feb-23 21:33N 52°04' E 001°50'1212.3
2015-Feb-23 20:33N 51°52' E 001°48'1110.9
2015-Feb-23 19:34N 51°48' E 001°32'1413.7
2015-Feb-23 18:33N 51°38' E 001°16'1414.1
2015-Feb-23 17:33N 51°31' E 000°57'1312.8
2015-Feb-23 16:33N 51°30' E 000°36'10 9.9
2015-Feb-23 15:34N 51°27' E 000°21'1 0.6
2015-Feb-23 14:31N 51°28' E 000°21'0 0.0
2015-Feb-23 13:31N 51°28' E 000°21'0 0.0
2015-Feb-23 12:31N 51°28' E 000°21'0 0.0
2015-Feb-23 11:31N 51°28' E 000°21'0 0.0
2015-Feb-23 10:31N 51°28' E 000°21'0 0.0
2015-Feb-23 09:31N 51°28' E 000°21'0 0.0
2015-Feb-23 08:32N 51°28' E 000°21'0 0.0
2015-Feb-23 07:34N 51°28' E 000°21'0 0.0
2015-Feb-23 06:33N 51°28' E 000°21'0 0.0
2015-Feb-23 05:30N 51°28' E 000°21'0 0.0
2015-Feb-23 04:33N 51°28' E 000°21'0 0.0
2015-Feb-23 03:33N 51°28' E 000°21'0 0.0
2015-Feb-23 02:33N 51°28' E 000°21'0 0.0
2015-Feb-23 01:34N 51°28' E 000°21'0 0.0
2015-Feb-23 00:34N 51°28' E 000°21'0 0.0
2015-Feb-22 23:34N 51°28' E 000°21'0 0.0
2015-Feb-22 22:33N 51°28' E 000°21'0 0.0
2015-Feb-22 21:34N 51°28' E 000°21'0 0.0
2015-Feb-22 20:33N 51°28' E 000°21'0 0.0
2015-Feb-22 19:33N 51°28' E 000°21'0 0.0
2015-Feb-22 18:33N 51°28' E 000°21'0 0.0
2015-Feb-22 17:33N 51°28' E 000°21'0 0.0
2015-Feb-22 16:34N 51°28' E 000°21'0 0.0
2015-Feb-22 15:32N 51°28' E 000°21'0 0.0
2015-Feb-22 14:32N 51°28' E 000°21'0 0.0
2015-Feb-22 13:34N 51°28' E 000°21'0 0.0
2015-Feb-22 12:34N 51°28' E 000°21'0 0.0
2015-Feb-22 11:33N 51°28' E 000°21'0 0.0
2015-Feb-22 10:34N 51°28' E 000°21'0 0.0
2015-Feb-22 09:34N 51°28' E 000°21'0 0.0
2015-Feb-22 08:32N 51°28' E 000°21'0 0.0
2015-Feb-22 07:32N 51°28' E 000°21'0 0.0
2015-Feb-22 06:32N 51°28' E 000°21'0 0.0
2015-Feb-22 05:34N 51°28' E 000°21'0 0.0
2015-Feb-22 04:34N 51°28' E 000°21'0 0.0
2015-Feb-22 03:33N 51°28' E 000°21'0 0.0
2015-Feb-22 02:32N 51°28' E 000°21'0 0.0
2015-Feb-22 01:33N 51°28' E 000°21'0 0.0
2015-Feb-22 00:33N 51°28' E 000°21'0 0.0
2015-Feb-21 23:34N 51°28' E 000°21'0 0.0
2015-Feb-21 22:33N 51°28' E 000°21'0 0.3
2015-Feb-21 21:33N 51°27' E 000°21'1 0.9
2015-Feb-21 20:33N 51°27' E 000°22'8 8.0
2015-Feb-21 19:34N 51°30' E 000°34'8 8.3
2015-Feb-21 18:33N 51°30' E 000°47'7 7.0
2015-Feb-21 17:33N 51°31' E 000°58'6 5.6
2015-Feb-21 16:29N 51°34' E 001°07'4 4.0
2015-Feb-21 15:32N 51°36' E 001°12'6 5.7
2015-Feb-21 14:33N 51°40' E 001°17'6 5.4
2015-Feb-21 13:30N 51°44' E 001°24'8 7.9
2015-Feb-21 12:33N 51°49' E 001°33'12 8.3
2015-Feb-21 11:09N 51°58' E 001°45'1810.4
2015-Feb-21 09:23N 52°16' E 001°49'1214.8
2015-Feb-21 08:33N 52°28' E 001°52'1514.5
2015-Feb-21 07:33N 52°42' E 001°48'1414.0
2015-Feb-21 06:33N 52°53' E 001°33'1313.1
2015-Feb-21 05:33N 52°60' E 001°14'3511.3
2015-Feb-21 02:27N 53°23' E 000°31'1011.3
2015-Feb-21 01:33N 53°30' E 000°19'1212.2
2015-Feb-21 00:34N 53°35' E 000°00'1313.5
2015-Feb-20 23:34N 53°44' W 000°16'1 0.5
2015-Feb-20 22:33N 53°45' W 000°15'0 0.0
2015-Feb-20 21:33N 53°45' W 000°15'0 0.0
2015-Feb-20 20:33N 53°45' W 000°15'0 0.0
2015-Feb-20 19:33N 53°45' W 000°15'0 0.0
2015-Feb-20 18:33N 53°45' W 000°15'0 0.0
2015-Feb-20 17:27N 53°45' W 000°16'0 0.0
2015-Feb-20 16:30N 53°45' W 000°15'0 0.0
2015-Feb-20 15:30N 53°45' W 000°15'0 0.0
2015-Feb-20 14:33N 53°45' W 000°15'0 0.0
2015-Feb-20 13:24N 53°45' W 000°15'0 0.0
2015-Feb-20 12:27N 53°44' W 000°15'1 0.6
2015-Feb-20 11:33N 53°44' W 000°16'3 2.6
2015-Feb-20 10:33N 53°42' W 000°14'6 6.0
2015-Feb-20 09:33N 53°38' W 000°08'7 7.2
2015-Feb-20 08:33N 53°35' E 000°04'8 7.6
2015-Feb-20 07:32N 53°33' E 000°16'10 9.8
2015-Feb-20 06:33N 53°26' E 000°27'9 8.7
2015-Feb-20 05:32N 53°19' E 000°37'3010.2
2015-Feb-20 02:33N 52°60' E 001°16'1313.0
2015-Feb-20 01:33N 52°53' E 001°35'1312.7
2015-Feb-20 00:33N 52°44' E 001°49'92 9.2
2015-Feb-19 14:33N 51°33' E 003°25'1010.1
2015-Feb-19 13:33N 51°26' E 003°37'8 7.9
2015-Feb-19 12:33N 51°21' E 003°47'2 2.4
2015-Feb-19 11:33N 51°19' E 003°49'7 7.1
2015-Feb-19 10:33N 51°12' E 003°48'2 1.4
2015-Feb-19 09:29N 51°11' E 003°48'0 0.0
2015-Feb-19 08:30N 51°11' E 003°48'0 0.0
2015-Feb-19 07:33N 51°11' E 003°48'0 0.0
2015-Feb-19 06:33N 51°11' E 003°48'0 0.0
2015-Feb-19 05:33N 51°11' E 003°48'0 0.0
2015-Feb-19 04:33N 51°11' E 003°48'0 0.0
2015-Feb-19 03:33N 51°11' E 003°48'0 0.0
2015-Feb-19 02:33N 51°11' E 003°48'0 0.0
2015-Feb-19 01:33N 51°11' E 003°48'0 0.0
2015-Feb-19 00:30N 51°11' E 003°48'0 0.0
2015-Feb-18 23:33N 51°11' E 003°48'0 0.0
2015-Feb-18 22:33N 51°11' E 003°48'0 0.0
2015-Feb-18 21:27N 51°11' E 003°48'0 0.0
2015-Feb-18 20:29N 51°11' E 003°48'0 0.0
2015-Feb-18 19:30N 51°11' E 003°48'0 0.0
2015-Feb-18 18:30N 51°11' E 003°48'0 0.0
2015-Feb-18 17:33N 51°11' E 003°48'0 0.0
2015-Feb-18 16:32N 51°11' E 003°48'0 0.0
2015-Feb-18 15:33N 51°11' E 003°48'0 0.0
2015-Feb-18 14:33N 51°11' E 003°48'0 0.0
2015-Feb-18 13:33N 51°11' E 003°48'0 0.0
2015-Feb-18 12:32N 51°11' E 003°48'0 0.0
2015-Feb-18 11:29N 51°11' E 003°48'0 0.0
2015-Feb-18 10:29N 51°11' E 003°48'6 6.2
2015-Feb-18 09:33N 51°16' E 003°50'4 4.1
2015-Feb-18 08:33N 51°20' E 003°49'2 2.4
2015-Feb-18 07:33N 51°22' E 003°45'7 7.3
2015-Feb-18 06:33N 51°26' E 003°35'9 8.9
2015-Feb-18 05:32N 51°32' E 003°25'9 9.7
2015-Feb-18 04:33N 51°40' E 003°18'9 9.2
2015-Feb-18 03:33N 51°49' E 003°14'4210.2
2015-Feb-17 23:29N 52°27' E 003°42'1411.1
2015-Feb-17 22:11N 52°31' E 004°05'711.4
2015-Feb-17 21:33N 52°30' E 004°16'1111.0
2015-Feb-17 20:34N 52°28' E 004°34'6 5.7
2015-Feb-17 19:34N 52°26' E 004°43'6 2.9
2015-Feb-17 17:32N 52°24' E 004°52'0 0.0
2015-Feb-17 16:32N 52°24' E 004°52'  
Track history (hours):
 
Tides and Currents Weather Stations Pressure Air Temp Water Temp Dewpoint Dewpoint Depression Visibility Wind Speed Wind Dir Waves Ship Positions

Cfl Racer

Last reported at 2015-Feb-27 16:25 UTC. Time now 2015-Mar-02 23:14 UTC.
Position N 54°56' W 001°14'.

Length 83 m; draft 3 m.

Type: Cargo ship. MMSI: 306762000.

Date/timePositionNaut miles runAvg speedWind from/ knotsBaromVisibWave heightAir tempDewpointWater temp
2015-Feb-27 16:25N 54°56' W 001°14'1011.1
2015-Feb-27 15:33N 54°47' W 001°10'10 9.9
2015-Feb-27 14:32N 54°37' W 001°09'0 0.4
2015-Feb-27 13:27N 54°36' W 001°09'0 0.0
2015-Feb-27 12:24N 54°36' W 001°09'0 0.0
2015-Feb-27 11:27N 54°36' W 001°09'0 0.0
2015-Feb-27 10:30N 54°36' W 001°09'0 0.0
2015-Feb-27 09:30N 54°36' W 001°09'0 0.0
2015-Feb-27 08:30N 54°36' W 001°09'0 0.0
2015-Feb-27 07:30N 54°36' W 001°09'5 0.7
2015-Feb-27 00:33N 54°40' W 001°06'8 7.5
2015-Feb-26 23:33N 54°37' W 000°54'1010.4
2015-Feb-26 22:33N 54°32' W 000°38'1110.7
2015-Feb-26 21:34N 54°24' W 000°26'7 7.4
2015-Feb-26 20:34N 54°18' W 000°18'9 9.4
2015-Feb-26 19:33N 54°11' W 000°07'1111.0
2015-Feb-26 18:33N 54°02' E 000°04'1211.6
2015-Feb-26 17:33N 53°52' E 000°13'1212.0
2015-Feb-26 16:33N 53°42' E 000°25'  
2015-Feb-24 03:33N 52°59' E 001°16'1312.9
2015-Feb-24 02:33N 52°52' E 001°33'1212.1
2015-Feb-24 01:33N 52°43' E 001°47'10 9.8
2015-Feb-24 00:33N 52°34' E 001°52'9 9.2
2015-Feb-23 23:33N 52°25' E 001°51'10 9.6
2015-Feb-23 22:33N 52°15' E 001°51'1110.6
2015-Feb-23 21:33N 52°04' E 001°50'1212.3
2015-Feb-23 20:33N 51°52' E 001°48'1110.9
2015-Feb-23 19:34N 51°48' E 001°32'1413.7
2015-Feb-23 18:33N 51°38' E 001°16'1414.1
2015-Feb-23 17:33N 51°31' E 000°57'1312.8
2015-Feb-23 16:33N 51°30' E 000°36'10 9.9
2015-Feb-23 15:34N 51°27' E 000°21'1 0.6
2015-Feb-23 14:31N 51°28' E 000°21'0 0.0
2015-Feb-23 13:31N 51°28' E 000°21'0 0.0
2015-Feb-23 12:31N 51°28' E 000°21'0 0.0
2015-Feb-23 11:31N 51°28' E 000°21'0 0.0
2015-Feb-23 10:31N 51°28' E 000°21'0 0.0
2015-Feb-23 09:31N 51°28' E 000°21'0 0.0
2015-Feb-23 08:32N 51°28' E 000°21'0 0.0
2015-Feb-23 07:34N 51°28' E 000°21'0 0.0
2015-Feb-23 06:33N 51°28' E 000°21'0 0.0
2015-Feb-23 05:30N 51°28' E 000°21'0 0.0
2015-Feb-23 04:33N 51°28' E 000°21'0 0.0
2015-Feb-23 03:33N 51°28' E 000°21'0 0.0
2015-Feb-23 02:33N 51°28' E 000°21'0 0.0
2015-Feb-23 01:34N 51°28' E 000°21'0 0.0
2015-Feb-23 00:34N 51°28' E 000°21'0 0.0
2015-Feb-22 23:34N 51°28' E 000°21'0 0.0
2015-Feb-22 22:33N 51°28' E 000°21'0 0.0
2015-Feb-22 21:34N 51°28' E 000°21'0 0.0
2015-Feb-22 20:33N 51°28' E 000°21'0 0.0
2015-Feb-22 19:33N 51°28' E 000°21'0 0.0
2015-Feb-22 18:33N 51°28' E 000°21'0 0.0
2015-Feb-22 17:33N 51°28' E 000°21'0 0.0
2015-Feb-22 16:34N 51°28' E 000°21'0 0.0
2015-Feb-22 15:32N 51°28' E 000°21'0 0.0
2015-Feb-22 14:32N 51°28' E 000°21'0 0.0
2015-Feb-22 13:34N 51°28' E 000°21'0 0.0
2015-Feb-22 12:34N 51°28' E 000°21'0 0.0
2015-Feb-22 11:33N 51°28' E 000°21'0 0.0
2015-Feb-22 10:34N 51°28' E 000°21'0 0.0
2015-Feb-22 09:34N 51°28' E 000°21'0 0.0
2015-Feb-22 08:32N 51°28' E 000°21'0 0.0
2015-Feb-22 07:32N 51°28' E 000°21'0 0.0
2015-Feb-22 06:32N 51°28' E 000°21'0 0.0
2015-Feb-22 05:34N 51°28' E 000°21'0 0.0
2015-Feb-22 04:34N 51°28' E 000°21'0 0.0
2015-Feb-22 03:33N 51°28' E 000°21'0 0.0
2015-Feb-22 02:32N 51°28' E 000°21'0 0.0
2015-Feb-22 01:33N 51°28' E 000°21'0 0.0
2015-Feb-22 00:33N 51°28' E 000°21'0 0.0
2015-Feb-21 23:34N 51°28' E 000°21'0 0.0
2015-Feb-21 22:33N 51°28' E 000°21'0 0.3
2015-Feb-21 21:33N 51°27' E 000°21'1 0.9
2015-Feb-21 20:33N 51°27' E 000°22'8 8.0
2015-Feb-21 19:34N 51°30' E 000°34'8 8.3
2015-Feb-21 18:33N 51°30' E 000°47'7 7.0
2015-Feb-21 17:33N 51°31' E 000°58'6 5.6
2015-Feb-21 16:29N 51°34' E 001°07'4 4.0
2015-Feb-21 15:32N 51°36' E 001°12'6 5.7
2015-Feb-21 14:33N 51°40' E 001°17'6 5.4
2015-Feb-21 13:30N 51°44' E 001°24'8 7.9
2015-Feb-21 12:33N 51°49' E 001°33'12 8.3
2015-Feb-21 11:09N 51°58' E 001°45'1810.4
2015-Feb-21 09:23N 52°16' E 001°49'1214.8
2015-Feb-21 08:33N 52°28' E 001°52'1514.5
2015-Feb-21 07:33N 52°42' E 001°48'1414.0
2015-Feb-21 06:33N 52°53' E 001°33'1313.1
2015-Feb-21 05:33N 52°60' E 001°14'3511.3
2015-Feb-21 02:27N 53°23' E 000°31'1011.3
2015-Feb-21 01:33N 53°30' E 000°19'1212.2
2015-Feb-21 00:34N 53°35' E 000°00'1313.5
2015-Feb-20 23:34N 53°44' W 000°16'1 0.5
2015-Feb-20 22:33N 53°45' W 000°15'0 0.0
2015-Feb-20 21:33N 53°45' W 000°15'0 0.0
2015-Feb-20 20:33N 53°45' W 000°15'0 0.0
2015-Feb-20 19:33N 53°45' W 000°15'0 0.0
2015-Feb-20 18:33N 53°45' W 000°15'0 0.0
2015-Feb-20 17:27N 53°45' W 000°16'0 0.0
2015-Feb-20 16:30N 53°45' W 000°15'0 0.0
2015-Feb-20 15:30N 53°45' W 000°15'0 0.0
2015-Feb-20 14:33N 53°45' W 000°15'0 0.0
2015-Feb-20 13:24N 53°45' W 000°15'0 0.0
2015-Feb-20 12:27N 53°44' W 000°15'1 0.6
2015-Feb-20 11:33N 53°44' W 000°16'3 2.6
2015-Feb-20 10:33N 53°42' W 000°14'6 6.0
2015-Feb-20 09:33N 53°38' W 000°08'7 7.2
2015-Feb-20 08:33N 53°35' E 000°04'8 7.6
2015-Feb-20 07:32N 53°33' E 000°16'10 9.8
2015-Feb-20 06:33N 53°26' E 000°27'9 8.7
2015-Feb-20 05:32N 53°19' E 000°37'3010.2
2015-Feb-20 02:33N 52°60' E 001°16'1313.0
2015-Feb-20 01:33N 52°53' E 001°35'1312.7
2015-Feb-20 00:33N 52°44' E 001°49'92 9.2
2015-Feb-19 14:33N 51°33' E 003°25'1010.1
2015-Feb-19 13:33N 51°26' E 003°37'8 7.9
2015-Feb-19 12:33N 51°21' E 003°47'2 2.4
2015-Feb-19 11:33N 51°19' E 003°49'7 7.1
2015-Feb-19 10:33N 51°12' E 003°48'2 1.4
2015-Feb-19 09:29N 51°11' E 003°48'0 0.0
2015-Feb-19 08:30N 51°11' E 003°48'0 0.0
2015-Feb-19 07:33N 51°11' E 003°48'0 0.0
2015-Feb-19 06:33N 51°11' E 003°48'0 0.0
2015-Feb-19 05:33N 51°11' E 003°48'0 0.0
2015-Feb-19 04:33N 51°11' E 003°48'0 0.0
2015-Feb-19 03:33N 51°11' E 003°48'0 0.0
2015-Feb-19 02:33N 51°11' E 003°48'0 0.0
2015-Feb-19 01:33N 51°11' E 003°48'0 0.0
2015-Feb-19 00:30N 51°11' E 003°48'0 0.0
2015-Feb-18 23:33N 51°11' E 003°48'0 0.0
2015-Feb-18 22:33N 51°11' E 003°48'0 0.0
2015-Feb-18 21:27N 51°11' E 003°48'0 0.0
2015-Feb-18 20:29N 51°11' E 003°48'0 0.0
2015-Feb-18 19:30N 51°11' E 003°48'0 0.0
2015-Feb-18 18:30N 51°11' E 003°48'0 0.0
2015-Feb-18 17:33N 51°11' E 003°48'0 0.0
2015-Feb-18 16:32N 51°11' E 003°48'0 0.0
2015-Feb-18 15:33N 51°11' E 003°48'0 0.0
2015-Feb-18 14:33N 51°11' E 003°48'0 0.0
2015-Feb-18 13:33N 51°11' E 003°48'0 0.0
2015-Feb-18 12:32N 51°11' E 003°48'0 0.0
2015-Feb-18 11:29N 51°11' E 003°48'0 0.0
2015-Feb-18 10:29N 51°11' E 003°48'6 6.2
2015-Feb-18 09:33N 51°16' E 003°50'4 4.1
2015-Feb-18 08:33N 51°20' E 003°49'2 2.4
2015-Feb-18 07:33N 51°22' E 003°45'7 7.3
2015-Feb-18 06:33N 51°26' E 003°35'9 8.9
2015-Feb-18 05:32N 51°32' E 003°25'9 9.7
2015-Feb-18 04:33N 51°40' E 003°18'9 9.2
2015-Feb-18 03:33N 51°49' E 003°14'4210.2
2015-Feb-17 23:29N 52°27' E 003°42'1411.1
2015-Feb-17 22:11N 52°31' E 004°05'711.4
2015-Feb-17 21:33N 52°30' E 004°16'1111.0
2015-Feb-17 20:34N 52°28' E 004°34'6 5.7
2015-Feb-17 19:34N 52°26' E 004°43'6 2.9
2015-Feb-17 17:32N 52°24' E 004°52'0 0.0
2015-Feb-17 16:32N 52°24' E 004°52'  

Dump ship's entire track history